KAXN/AXN METAR and TAF weather

Enter ICAO airport designator
Station Type Date Time Source
KAXN METAR 2020/01/20 12:53 UTC NOAA

KAXN 201253Z AUTO 33004KT 10SM CLR M22/M23 A3061 RMK AO2 SLP413 T12221233


Station Type Date Time Source
KAXN Decoded METAR 2020/01/20 12:53 UTC NOAA

CHANDLER FIELD, MN, United States (KAXN) 45-52N 095-24W 433M
Jan 20, 2020 - 07:53 AM EST / 2020.01.20 1253 UTC
Wind: from the NNW (330 degrees) at 5 MPH (4 KT):0
Visibility: 10 mile(s):0
Sky conditions: clear
Temperature: -8.0 F (-22.2 C)
Windchill: -20 F (-29 C):2
Dew Point: -9.9 F (-23.3 C)
Relative Humidity: 90%
Pressure (altimeter): 30.61 in. Hg (1036 hPa)
ob: KAXN 201253Z AUTO 33004KT 10SM CLR M22/M23 A3061 RMK AO2 SLP413 T12221233
cycle: 13

Station Type Date Time Source
KAXN TAF 2020/01/20 12:42 UTC NOAA

TAF KAXN 201140Z 2012/2112 VRB03KT P6SM SKC
TEMPO 2015/2017 BKN007
FM202000 21006KT P6SM SKC
FM210200 19011KT P6SM SKC

Example: see airport list